KEPH

Ephrata Municipal Airport

Ephrata, Washington, USA
METAR KEPH 210653Z AUTO 30015KT 10SM CLR 18/07 A2986 RMK AO2 SLP105 T01830067
Observed Flight Rules
May-21 @ 06:53 UTC (15 minutes ago) Visual Flight Rules
Wind Visibility Clouds
300° at 15 knots 10 miles
  • Clear skies
Temperatures Readings
Current 18°C / 64°F
Dewpoint 7°C / 45°F
Humidity 49%
Altimeter 29.86" Hg
Pressure 1010.5 hPa
Elevation 383
METAR KEPH 210653Z AUTO 30015KT 10SM CLR 18/07 A2986 RMK AO2 SLP105 T01830067
Observed Flight Rules
May-21 @ 06:53 UTC
(15 minutes ago)
VFR
Wind Visibility
300° at 15 knots 10 miles
Clouds
  • Clear skies
Temperature Dewpoint
18°C / 64°F 7°C / 45°F
Humidity Altimeter Pressure
49% 29.86" Hg 1010.5 hPa